Flight Track Log - Related Links

Times and Time Zones

All times are in EDT time to prevent confusion due to time zone crossing. See the GGN7268 flight status page for this flight to view local times or setup timezone preferences in your user account.

Time Position Orientation Groundspeed Altitude Reporting Facility
EDT Latitude Longitude Course Direction KTS MPH feet Rate Location/Type
Mon 07:21:38 PM 42.4333 -84.3333 98° East 450 518 37,000  Level Toronto Center
Mon 07:22:39 PM 42.4167 -84.1667 98° East 450 518 37,000  Level Toronto Center
Mon 07:23:39 PM 42.4167 -84.0167 90° East 450 518 37,000  Level Toronto Center
Mon 07:24:39 PM 42.4167 -83.8333 90° East 440 506 37,000 -50 Level Toronto Center
Mon 07:25:39 PM 42.4167 -83.6667 90° East 440 506 36,900  Descending Toronto Center
Mon 07:26:39 PM 42.4000 -83.5000 98° East 440 506 37,000 -18,286 Climbing Toronto Center
Mon 07:27:24 PM 43.6833 -79.8000 63° Northeast 190 219 4,900 -17,543 Descending Toronto Center
Mon 07:28:24 PM 43.7000 -79.8833 285° West 180 207 6,300 1,350 Climbing Toronto Center
Mon 07:29:24 PM 43.7000 -79.9333 270° West 180 207 7,600 850 Climbing Toronto Center
Mon 07:30:24 PM 43.7167 -80.0333 283° West 190 219 8,000 200 Climbing Toronto Center
Mon 07:31:24 PM 43.7167 -80.1000 270° West 220 253 8,000 298 Level Toronto Center
Mon 07:32:25 PM 43.7333 -80.1833 285° West 230 265 8,600 1,000 Climbing Toronto Center
Mon 07:33:24 PM 43.7333 -80.2500 270° West 210 242 10,000 1,311 Climbing Toronto Center
Mon 07:34:24 PM 43.7333 -80.3500 270° West 200 230 11,200 1,200 Climbing Toronto Center
Mon 07:35:24 PM 43.7333 -80.4167 270° West 200 230 12,400 1,200 Climbing Toronto Center
Mon 07:36:24 PM 43.7333 -80.4833 270° West 200 230 13,600 1,140 Climbing Toronto Center
Mon 07:37:25 PM 43.7333 -80.5833 270° West 200 230 14,700 1,100 Climbing Toronto Center
Mon 07:38:24 PM 43.7167 -80.6500 251° West 210 242 15,800 1,008 Climbing Toronto Center
Mon 07:39:24 PM 43.7000 -80.7333 255° West 220 253 16,700 1,050 Climbing Toronto Center
Mon 07:40:24 PM 43.6833 -80.8167 255° West 220 253 17,900 1,000 Climbing Toronto Center
Mon 07:41:24 PM 43.6500 -80.9000 241° Southwest 220 253 18,700 843 Climbing Toronto Center
Mon 07:42:25 PM 43.6333 -80.9667 251° West 230 265 19,600 650 Climbing Toronto Center
Mon 07:43:24 PM 43.6167 -81.0833 259° West 240 276 20,000 202 Climbing Toronto Center
Mon 07:44:24 PM 43.6000 -81.1833 257° West 270 311 20,000  Level Toronto Center
Mon 07:45:24 PM 43.5667 -81.2667 241° Southwest 270 311 20,000  Level Toronto Center
Mon 07:46:25 PM 43.5500 -81.3833 259° West 270 311 20,000  Level Toronto Center
Mon 07:47:24 PM 43.5333 -81.4667 255° West 280 322 20,000  Level Toronto Center
Mon 07:48:24 PM 43.5167 -81.5667 257° West 270 311 20,000  Level Toronto Center
Mon 07:49:24 PM 43.4833 -81.6833 249° West 270 311 20,000  Level Toronto Center
Mon 07:50:24 PM 43.4667 -81.7667 255° West 270 311 20,000  Level Toronto Center
Mon 07:51:25 PM 43.4667 -81.8667 270° West 260 299 20,000  Level Toronto Center
Mon 07:52:24 PM 43.4333 -81.9833 249° West 260 299 20,000  Level Toronto Center
Mon 07:53:24 PM 43.4167 -82.0667 255° West 260 299 20,000  Level Toronto Center
Mon 07:54:24 PM 43.4000 -82.1500 255° West 260 299 20,000  Level Toronto Center
Mon 07:54:45 PM 43.4158 -82.2094 290° West 263 303 20,000  Level Cleveland Center
Mon 07:55:45 PM 43.4017 -82.3089 259° West 263 303 20,000  Level Cleveland Center
Mon 07:57:24 PM 43.3667 -82.4500 251° West 260 299 20,000  Level Toronto Center
Mon 07:58:24 PM 43.3500 -82.5500 257° West 260 299 20,000  Level Toronto Center
Mon 07:59:24 PM 43.3333 -82.6667 259° West 260 299 20,000  Level Toronto Center
Mon 07:59:45 PM 43.3453 -82.6928 302° West 257 296 20,000  Level Cleveland Center
Mon 08:00:45 PM 43.3311 -82.7894 259° West 257 296 20,000  Level Cleveland Center
Mon 08:01:45 PM 43.3125 -82.8856 255° West 257 296 20,000  Level Cleveland Center
Mon 08:02:45 PM 43.3000 -82.9850 260° West 257 296 20,000  Level Cleveland Center
Mon 08:03:45 PM 43.2858 -83.0700 257° West 264 304 20,000  Level Cleveland Center
Mon 08:04:45 PM 43.2692 -83.1692 257° West 264 304 20,000  Level Cleveland Center
Mon 08:05:45 PM 43.2564 -83.2656 260° West 259 298 20,000  Level Cleveland Center
Mon 08:06:45 PM 43.2394 -83.3647 257° West 259 298 20,000 -400 Level Cleveland Center
Mon 08:07:45 PM 43.2244 -83.4636 258° West 259 298 19,200 -950 Descending Cleveland Center
Mon 08:08:45 PM 43.2094 -83.5683 259° West 271 312 18,100 -1,050 Descending Cleveland Center
Mon 08:09:45 PM 43.1922 -83.6672 257° West 271 312 17,100 -1,100 Descending Cleveland Center
Mon 08:10:45 PM 43.1769 -83.7689 258° West 276 318 15,900 -1,200 Descending Cleveland Center
Mon 08:11:45 PM 43.1617 -83.8706 258° West 276 318 14,700 -1,200 Descending Cleveland Center
Mon 08:12:45 PM 43.1442 -83.9722 257° West 276 318 13,500 -1,450 Descending Cleveland Center
Mon 08:13:45 PM 43.1289 -84.0653 257° West 276 318 11,800 -1,850 Descending Cleveland Center
Mon 08:14:45 PM 43.1131 -84.1697 258° West 264 304 9,800 -1,850 Descending Cleveland Center
Mon 08:15:45 PM 43.0975 -84.2656 257° West 259 298 8,100 -900 Descending Cleveland Center
Mon 08:16:45 PM 43.0847 -84.3444 258° West 259 298 8,000 -60 Descending Cleveland Center
Mon 08:17:25 PM 43.0747 -84.4014 257° West 243 280 8,000  Level Chicago Center
Mon 08:18:27 PM 43.0586 -84.4889 256° West 240 276 8,000  Level Chicago Center
Mon 08:19:29 PM 43.0453 -84.5769 258° West 239 275 8,000  Level Chicago Center
Mon 08:20:31 PM 43.0272 -84.6819 257° West 238 274 8,000  Level Chicago Center
Mon 08:21:34 PM 43.0128 -84.7686 257° West 236 272 8,000 -96 Level Chicago Center
Mon 08:22:36 PM 42.9953 -84.8533 254° West 234 269 7,800 -871 Descending Chicago Center
Mon 08:23:38 PM 42.9719 -84.9322 248° West 228 262 6,200 -1,355 Descending Chicago Center
Mon 08:24:40 PM 42.9506 -85.0094 249° West 221 254 5,000 -581 Descending Chicago Center
Mon 08:25:42 PM 42.9278 -85.0858 248° West 218 251 5,000  Level Chicago Center
Mon 08:26:44 PM 42.9167 -85.1789 261° West 211 243 5,000  Level Chicago Center
Mon 08:27:46 PM 42.9094 -85.2467 262° West 191 220 5,000 -532 Level Chicago Center
Mon 08:28:48 PM 42.9050 -85.3022 264° West 156 180 3,900 -968 Descending Chicago Center
Mon 08:29:50 PM 42.8964 -85.3644 259° West 160 184 3,000 -919 Descending Chicago Center
Mon 08:30:52 PM 42.8892 -85.4261 261° West 164 189 2,000 -871 Descending Chicago Center
Mon 08:31:54 PM 42.8825 -85.4864 261° West 147 169 1,200 -484 Descending Chicago Center
Mon 08:32:56 PM 42.8786 -85.5300 263° West 142 163 1,000 -194 Descending Chicago Center
Mon 08:34:00 PM 42.8808 -85.5228 North  Level Estimated
Mon 08:41:00 PM 42.8808 -85.5228 North  Level Estimated

Login

Don't have an account? Register now (free) for customized features, flight alerts, and more!